sensor_id;sensor_type;location;lat;lon;timestamp;temperature;humidity
10678;DHT22;5387;48.722;9.110;2022-07-23T00:00:10;23.10;98.50
10678;DHT22;5387;48.722;9.110;2022-07-23T00:02:38;23.00;98.20
10678;DHT22;5387;48.722;9.110;2022-07-23T00:05:05;23.00;98.00
10678;DHT22;5387;48.722;9.110;2022-07-23T00:07:32;22.90;98.10
10678;DHT22;5387;48.722;9.110;2022-07-23T00:09:59;22.90;98.70
10678;DHT22;5387;48.722;9.110;2022-07-23T00:12:26;22.80;99.10
10678;DHT22;5387;48.722;9.110;2022-07-23T00:14:53;22.80;98.70
10678;DHT22;5387;48.722;9.110;2022-07-23T00:17:20;22.70;98.80
10678;DHT22;5387;48.722;9.110;2022-07-23T00:19:48;22.70;99.40
10678;DHT22;5387;48.722;9.110;2022-07-23T00:22:15;22.60;99.40
10678;DHT22;5387;48.722;9.110;2022-07-23T00:24:42;22.60;99.10
10678;DHT22;5387;48.722;9.110;2022-07-23T00:27:09;22.50;99.20
10678;DHT22;5387;48.722;9.110;2022-07-23T00:29:35;22.50;99.60
10678;DHT22;5387;48.722;9.110;2022-07-23T00:32:03;22.40;99.80
10678;DHT22;5387;48.722;9.110;2022-07-23T00:34:29;22.30;99.90
10678;DHT22;5387;48.722;9.110;2022-07-23T00:36:58;21.90;99.90
10678;DHT22;5387;48.722;9.110;2022-07-23T00:39:25;21.50;99.90
10678;DHT22;5387;48.722;9.110;2022-07-23T00:41:51;21.20;99.90
10678;DHT22;5387;48.722;9.110;2022-07-23T00:44:20;20.80;99.90
10678;DHT22;5387;48.722;9.110;2022-07-23T00:46:49;20.50;99.90
10678;DHT22;5387;48.722;9.110;2022-07-23T00:49:19;20.30;99.90
10678;DHT22;5387;48.722;9.110;2022-07-23T00:51:46;20.10;99.90
10678;DHT22;5387;48.722;9.110;2022-07-23T00:54:15;20.10;99.90
10678;DHT22;5387;48.722;9.110;2022-07-23T00:56:43;20.10;99.90
10678;DHT22;5387;48.722;9.110;2022-07-23T00:59:10;20.10;99.90
10678;DHT22;5387;48.722;9.110;2022-07-23T01:01:37;20.10;99.90
10678;DHT22;5387;48.722;9.110;2022-07-23T01:04:05;20.20;99.90
10678;DHT22;5387;48.722;9.110;2022-07-23T01:06:35;20.20;99.90
10678;DHT22;5387;48.722;9.110;2022-07-23T01:09:04;20.30;99.90
10678;DHT22;5387;48.722;9.110;2022-07-23T01:11:33;20.40;99.90
10678;DHT22;5387;48.722;9.110;2022-07-23T01:14:08;20.50;99.90
10678;DHT22;5387;48.722;9.110;2022-07-23T01:16:35;20.50;99.90
10678;DHT22;5387;48.722;9.110;2022-07-23T01:19:02;20.60;99.90
10678;DHT22;5387;48.722;9.110;2022-07-23T01:21:30;20.50;99.90
10678;DHT22;5387;48.722;9.110;2022-07-23T01:23:58;20.60;99.90
10678;DHT22;5387;48.722;9.110;2022-07-23T01:26:26;20.60;99.90
10678;DHT22;5387;48.722;9.110;2022-07-23T01:28:52;20.50;99.90
10678;DHT22;5387;48.722;9.110;2022-07-23T01:31:19;20.60;99.90
10678;DHT22;5387;48.722;9.110;2022-07-23T01:33:46;20.60;99.90
10678;DHT22;5387;48.722;9.110;2022-07-23T01:36:13;20.60;99.90
10678;DHT22;5387;48.722;9.110;2022-07-23T01:38:40;20.60;99.90
10678;DHT22;5387;48.722;9.110;2022-07-23T01:41:08;20.60;99.90
10678;DHT22;5387;48.722;9.110;2022-07-23T01:43:35;20.40;99.90
10678;DHT22;5387;48.722;9.110;2022-07-23T01:46:02;20.20;99.90
10678;DHT22;5387;48.722;9.110;2022-07-23T01:48:29;20.10;99.90
10678;DHT22;5387;48.722;9.110;2022-07-23T01:50:56;20.10;99.90
10678;DHT22;5387;48.722;9.110;2022-07-23T01:53:22;20.10;99.90
10678;DHT22;5387;48.722;9.110;2022-07-23T01:55:49;20.00;99.90
10678;DHT22;5387;48.722;9.110;2022-07-23T01:58:18;20.10;99.90
10678;DHT22;5387;48.722;9.110;2022-07-23T02:00:44;20.10;99.90
10678;DHT22;5387;48.722;9.110;2022-07-23T02:03:11;20.10;99.90
10678;DHT22;5387;48.722;9.110;2022-07-23T02:05:38;20.20;99.90
10678;DHT22;5387;48.722;9.110;2022-07-23T02:08:05;20.20;99.90
10678;DHT22;5387;48.722;9.110;2022-07-23T02:10:33;20.30;99.90
10678;DHT22;5387;48.722;9.110;2022-07-23T02:13:00;20.30;99.90
10678;DHT22;5387;48.722;9.110;2022-07-23T02:15:28;20.30;99.90
10678;DHT22;5387;48.722;9.110;2022-07-23T02:17:55;20.20;99.90
10678;DHT22;5387;48.722;9.110;2022-07-23T02:20:23;20.20;99.90
10678;DHT22;5387;48.722;9.110;2022-07-23T02:22:51;20.20;99.90
10678;DHT22;5387;48.722;9.110;2022-07-23T02:25:17;20.10;99.90
10678;DHT22;5387;48.722;9.110;2022-07-23T02:27:44;20.10;99.90
10678;DHT22;5387;48.722;9.110;2022-07-23T02:30:11;20.00;99.90
10678;DHT22;5387;48.722;9.110;2022-07-23T02:32:40;20.00;99.90
10678;DHT22;5387;48.722;9.110;2022-07-23T02:35:07;20.00;99.90
10678;DHT22;5387;48.722;9.110;2022-07-23T02:37:34;20.00;99.90
10678;DHT22;5387;48.722;9.110;2022-07-23T02:40:01;19.90;99.90
10678;DHT22;5387;48.722;9.110;2022-07-23T02:42:28;20.00;99.90
10678;DHT22;5387;48.722;9.110;2022-07-23T02:44:55;20.00;99.90
10678;DHT22;5387;48.722;9.110;2022-07-23T02:47:21;20.00;99.90
10678;DHT22;5387;48.722;9.110;2022-07-23T02:49:50;20.10;99.90
10678;DHT22;5387;48.722;9.110;2022-07-23T02:52:17;20.10;99.90
10678;DHT22;5387;48.722;9.110;2022-07-23T02:54:43;20.20;99.90
10678;DHT22;5387;48.722;9.110;2022-07-23T02:57:10;20.30;99.90
10678;DHT22;5387;48.722;9.110;2022-07-23T02:59:37;20.30;99.90
10678;DHT22;5387;48.722;9.110;2022-07-23T03:02:04;20.30;99.90
10678;DHT22;5387;48.722;9.110;2022-07-23T03:04:31;20.40;99.90
10678;DHT22;5387;48.722;9.110;2022-07-23T03:06:59;20.40;99.90
10678;DHT22;5387;48.722;9.110;2022-07-23T03:09:26;20.40;99.90
10678;DHT22;5387;48.722;9.110;2022-07-23T03:11:53;20.50;99.90
10678;DHT22;5387;48.722;9.110;2022-07-23T03:14:20;20.50;99.90
10678;DHT22;5387;48.722;9.110;2022-07-23T03:16:47;20.50;99.90
10678;DHT22;5387;48.722;9.110;2022-07-23T03:19:15;20.50;99.90
10678;DHT22;5387;48.722;9.110;2022-07-23T03:21:42;20.50;99.90
10678;DHT22;5387;48.722;9.110;2022-07-23T03:24:10;20.50;99.90
10678;DHT22;5387;48.722;9.110;2022-07-23T03:26:37;20.60;99.90
10678;DHT22;5387;48.722;9.110;2022-07-23T03:29:05;20.60;99.90
10678;DHT22;5387;48.722;9.110;2022-07-23T03:31:32;20.70;99.90
10678;DHT22;5387;48.722;9.110;2022-07-23T03:33:59;20.70;99.90
10678;DHT22;5387;48.722;9.110;2022-07-23T03:36:26;20.80;99.90
10678;DHT22;5387;48.722;9.110;2022-07-23T03:38:53;20.80;99.90
10678;DHT22;5387;48.722;9.110;2022-07-23T03:41:21;20.80;99.90
10678;DHT22;5387;48.722;9.110;2022-07-23T03:43:48;20.70;99.90
10678;DHT22;5387;48.722;9.110;2022-07-23T03:46:15;20.50;99.90
10678;DHT22;5387;48.722;9.110;2022-07-23T03:48:41;20.50;99.90
10678;DHT22;5387;48.722;9.110;2022-07-23T03:51:08;20.30;99.90
10678;DHT22;5387;48.722;9.110;2022-07-23T03:53:35;20.30;99.90
10678;DHT22;5387;48.722;9.110;2022-07-23T03:56:02;20.20;99.90
10678;DHT22;5387;48.722;9.110;2022-07-23T03:58:30;20.20;99.90
10678;DHT22;5387;48.722;9.110;2022-07-23T04:00:57;20.20;99.90
10678;DHT22;5387;48.722;9.110;2022-07-23T04:03:24;20.20;99.90
10678;DHT22;5387;48.722;9.110;2022-07-23T04:05:51;20.10;99.90
10678;DHT22;5387;48.722;9.110;2022-07-23T04:08:17;20.10;99.90
10678;DHT22;5387;48.722;9.110;2022-07-23T04:10:44;20.10;99.90
10678;DHT22;5387;48.722;9.110;2022-07-23T04:13:11;20.20;99.90
10678;DHT22;5387;48.722;9.110;2022-07-23T04:15:39;20.20;99.90
10678;DHT22;5387;48.722;9.110;2022-07-23T04:18:06;20.30;99.90
10678;DHT22;5387;48.722;9.110;2022-07-23T04:20:33;20.20;99.90
10678;DHT22;5387;48.722;9.110;2022-07-23T04:23:00;20.10;99.90
10678;DHT22;5387;48.722;9.110;2022-07-23T04:25:27;20.10;99.90
10678;DHT22;5387;48.722;9.110;2022-07-23T04:27:54;20.20;99.90
10678;DHT22;5387;48.722;9.110;2022-07-23T04:30:20;20.20;99.90
10678;DHT22;5387;48.722;9.110;2022-07-23T04:32:49;20.20;99.90
10678;DHT22;5387;48.722;9.110;2022-07-23T04:35:15;20.20;99.90
10678;DHT22;5387;48.722;9.110;2022-07-23T04:37:42;20.20;99.90
10678;DHT22;5387;48.722;9.110;2022-07-23T04:40:10;20.20;99.90
10678;DHT22;5387;48.722;9.110;2022-07-23T04:42:38;20.20;99.90
10678;DHT22;5387;48.722;9.110;2022-07-23T04:45:06;20.20;99.90
10678;DHT22;5387;48.722;9.110;2022-07-23T04:47:33;20.20;99.90
10678;DHT22;5387;48.722;9.110;2022-07-23T04:50:01;20.30;99.90
10678;DHT22;5387;48.722;9.110;2022-07-23T04:52:28;20.40;99.90
10678;DHT22;5387;48.722;9.110;2022-07-23T04:54:55;20.40;99.90
10678;DHT22;5387;48.722;9.110;2022-07-23T04:57:21;20.50;99.90
10678;DHT22;5387;48.722;9.110;2022-07-23T04:59:48;20.50;99.90
10678;DHT22;5387;48.722;9.110;2022-07-23T05:02:15;20.50;99.90
10678;DHT22;5387;48.722;9.110;2022-07-23T05:04:42;20.50;99.90
10678;DHT22;5387;48.722;9.110;2022-07-23T05:07:10;20.70;99.90
10678;DHT22;5387;48.722;9.110;2022-07-23T05:09:37;20.70;99.90
10678;DHT22;5387;48.722;9.110;2022-07-23T05:12:04;20.60;99.90
10678;DHT22;5387;48.722;9.110;2022-07-23T05:14:31;20.60;99.90
10678;DHT22;5387;48.722;9.110;2022-07-23T05:16:58;20.50;99.90
10678;DHT22;5387;48.722;9.110;2022-07-23T05:19:25;20.60;99.90
10678;DHT22;5387;48.722;9.110;2022-07-23T05:21:52;20.70;99.90
10678;DHT22;5387;48.722;9.110;2022-07-23T05:24:20;20.80;99.90
10678;DHT22;5387;48.722;9.110;2022-07-23T05:26:47;20.90;99.90
10678;DHT22;5387;48.722;9.110;2022-07-23T05:29:14;20.90;99.90
10678;DHT22;5387;48.722;9.110;2022-07-23T05:31:41;20.90;99.90
10678;DHT22;5387;48.722;9.110;2022-07-23T05:34:07;21.00;99.90
10678;DHT22;5387;48.722;9.110;2022-07-23T05:36:34;21.00;99.90
10678;DHT22;5387;48.722;9.110;2022-07-23T05:39:02;21.00;99.90
10678;DHT22;5387;48.722;9.110;2022-07-23T05:41:30;20.90;99.90
10678;DHT22;5387;48.722;9.110;2022-07-23T05:43:57;21.10;99.90
10678;DHT22;5387;48.722;9.110;2022-07-23T05:46:24;21.30;99.90
10678;DHT22;5387;48.722;9.110;2022-07-23T05:48:51;21.50;99.90
10678;DHT22;5387;48.722;9.110;2022-07-23T05:51:21;21.60;99.90
10678;DHT22;5387;48.722;9.110;2022-07-23T05:53:48;21.50;99.90
10678;DHT22;5387;48.722;9.110;2022-07-23T05:56:15;21.60;99.90
10678;DHT22;5387;48.722;9.110;2022-07-23T05:58:43;21.70;99.90
10678;DHT22;5387;48.722;9.110;2022-07-23T06:01:10;21.70;99.90
10678;DHT22;5387;48.722;9.110;2022-07-23T06:03:38;21.90;99.90
10678;DHT22;5387;48.722;9.110;2022-07-23T06:06:05;22.00;99.90
10678;DHT22;5387;48.722;9.110;2022-07-23T06:08:32;22.10;99.90
10678;DHT22;5387;48.722;9.110;2022-07-23T06:10:59;22.20;99.90
10678;DHT22;5387;48.722;9.110;2022-07-23T06:13:26;22.40;99.90
10678;DHT22;5387;48.722;9.110;2022-07-23T06:15:54;22.50;99.90
10678;DHT22;5387;48.722;9.110;2022-07-23T06:18:21;22.70;99.90
10678;DHT22;5387;48.722;9.110;2022-07-23T06:20:48;22.80;99.90
10678;DHT22;5387;48.722;9.110;2022-07-23T06:23:15;22.80;99.90
10678;DHT22;5387;48.722;9.110;2022-07-23T06:25:42;22.70;99.90
10678;DHT22;5387;48.722;9.110;2022-07-23T06:28:08;22.70;99.90
10678;DHT22;5387;48.722;9.110;2022-07-23T06:30:35;23.00;99.90
10678;DHT22;5387;48.722;9.110;2022-07-23T06:33:03;23.10;99.90
10678;DHT22;5387;48.722;9.110;2022-07-23T06:35:30;23.20;99.90
10678;DHT22;5387;48.722;9.110;2022-07-23T06:37:59;23.30;99.90
10678;DHT22;5387;48.722;9.110;2022-07-23T06:40:26;23.20;99.90
10678;DHT22;5387;48.722;9.110;2022-07-23T06:42:52;23.10;99.90
10678;DHT22;5387;48.722;9.110;2022-07-23T06:45:19;22.90;99.90
10678;DHT22;5387;48.722;9.110;2022-07-23T06:47:46;22.90;99.90
10678;DHT22;5387;48.722;9.110;2022-07-23T06:50:14;22.70;99.90
10678;DHT22;5387;48.722;9.110;2022-07-23T06:52:41;22.80;99.90
10678;DHT22;5387;48.722;9.110;2022-07-23T06:55:08;22.90;99.90
10678;DHT22;5387;48.722;9.110;2022-07-23T06:57:35;22.90;99.90
10678;DHT22;5387;48.722;9.110;2022-07-23T07:00:03;22.70;99.90
10678;DHT22;5387;48.722;9.110;2022-07-23T07:02:31;22.60;99.90
10678;DHT22;5387;48.722;9.110;2022-07-23T07:04:57;22.60;99.90
10678;DHT22;5387;48.722;9.110;2022-07-23T07:07:26;22.60;99.90
10678;DHT22;5387;48.722;9.110;2022-07-23T07:09:53;22.70;99.90
10678;DHT22;5387;48.722;9.110;2022-07-23T07:12:19;22.80;99.90
10678;DHT22;5387;48.722;9.110;2022-07-23T07:14:46;22.40;99.90
10678;DHT22;5387;48.722;9.110;2022-07-23T07:17:13;22.40;99.90
10678;DHT22;5387;48.722;9.110;2022-07-23T07:19:41;22.40;99.90
10678;DHT22;5387;48.722;9.110;2022-07-23T07:22:07;22.20;99.90
10678;DHT22;5387;48.722;9.110;2022-07-23T07:24:36;22.10;99.90
10678;DHT22;5387;48.722;9.110;2022-07-23T07:27:03;22.00;99.90
10678;DHT22;5387;48.722;9.110;2022-07-23T07:29:30;22.00;99.90
10678;DHT22;5387;48.722;9.110;2022-07-23T07:31:57;22.00;99.90
10678;DHT22;5387;48.722;9.110;2022-07-23T07:34:24;22.00;99.90
10678;DHT22;5387;48.722;9.110;2022-07-23T07:36:51;22.30;99.90
10678;DHT22;5387;48.722;9.110;2022-07-23T07:39:17;22.40;99.90
10678;DHT22;5387;48.722;9.110;2022-07-23T07:41:46;22.80;99.90
10678;DHT22;5387;48.722;9.110;2022-07-23T07:44:14;23.10;99.90
10678;DHT22;5387;48.722;9.110;2022-07-23T07:46:41;22.90;99.90
10678;DHT22;5387;48.722;9.110;2022-07-23T07:49:09;22.70;99.90
10678;DHT22;5387;48.722;9.110;2022-07-23T07:51:35;22.50;99.90
10678;DHT22;5387;48.722;9.110;2022-07-23T07:54:02;22.30;99.90
10678;DHT22;5387;48.722;9.110;2022-07-23T07:56:29;22.40;99.90
10678;DHT22;5387;48.722;9.110;2022-07-23T07:58:57;22.50;99.90
10678;DHT22;5387;48.722;9.110;2022-07-23T08:01:25;22.20;99.90
10678;DHT22;5387;48.722;9.110;2022-07-23T08:03:52;22.10;99.90
10678;DHT22;5387;48.722;9.110;2022-07-23T08:06:19;22.20;99.90
10678;DHT22;5387;48.722;9.110;2022-07-23T08:08:46;22.50;99.90
10678;DHT22;5387;48.722;9.110;2022-07-23T08:11:13;22.50;99.90
10678;DHT22;5387;48.722;9.110;2022-07-23T08:13:39;22.40;99.90
10678;DHT22;5387;48.722;9.110;2022-07-23T08:16:08;22.40;99.90
10678;DHT22;5387;48.722;9.110;2022-07-23T08:18:35;22.30;99.90
10678;DHT22;5387;48.722;9.110;2022-07-23T08:21:02;22.20;99.90
10678;DHT22;5387;48.722;9.110;2022-07-23T08:23:29;22.20;99.90
10678;DHT22;5387;48.722;9.110;2022-07-23T08:25:57;22.20;99.90
10678;DHT22;5387;48.722;9.110;2022-07-23T08:28:25;22.20;99.90
10678;DHT22;5387;48.722;9.110;2022-07-23T08:30:52;22.20;99.90
10678;DHT22;5387;48.722;9.110;2022-07-23T08:33:20;22.20;99.90
10678;DHT22;5387;48.722;9.110;2022-07-23T08:35:48;22.50;99.90
10678;DHT22;5387;48.722;9.110;2022-07-23T08:38:17;23.00;99.90
10678;DHT22;5387;48.722;9.110;2022-07-23T08:40:47;23.40;99.90
10678;DHT22;5387;48.722;9.110;2022-07-23T08:43:15;23.30;99.90
10678;DHT22;5387;48.722;9.110;2022-07-23T08:45:44;23.50;99.90
10678;DHT22;5387;48.722;9.110;2022-07-23T08:48:13;23.70;99.90
10678;DHT22;5387;48.722;9.110;2022-07-23T08:50:44;23.60;99.90
10678;DHT22;5387;48.722;9.110;2022-07-23T08:53:11;23.50;99.90
10678;DHT22;5387;48.722;9.110;2022-07-23T08:55:38;23.80;99.90
10678;DHT22;5387;48.722;9.110;2022-07-23T08:58:05;24.00;99.90
10678;DHT22;5387;48.722;9.110;2022-07-23T09:00:32;24.10;99.90
10678;DHT22;5387;48.722;9.110;2022-07-23T09:02:59;24.50;99.90
10678;DHT22;5387;48.722;9.110;2022-07-23T09:05:26;24.60;99.90
10678;DHT22;5387;48.722;9.110;2022-07-23T09:08:11;24.60;99.90
10678;DHT22;5387;48.722;9.110;2022-07-23T09:10:52;24.90;99.90
10678;DHT22;5387;48.722;9.110;2022-07-23T09:13:31;24.90;99.90
10678;DHT22;5387;48.722;9.110;2022-07-23T09:16:01;25.40;99.90
10678;DHT22;5387;48.722;9.110;2022-07-23T09:18:30;25.20;99.90
10678;DHT22;5387;48.722;9.110;2022-07-23T09:21:09;25.10;99.90
10678;DHT22;5387;48.722;9.110;2022-07-23T09:23:43;25.20;99.90
10678;DHT22;5387;48.722;9.110;2022-07-23T09:29:07;25.60;99.90
10678;DHT22;5387;48.722;9.110;2022-07-23T09:31:42;25.80;99.90
10678;DHT22;5387;48.722;9.110;2022-07-23T09:34:12;26.30;99.90
10678;DHT22;5387;48.722;9.110;2022-07-23T09:36:40;26.30;99.90
10678;DHT22;5387;48.722;9.110;2022-07-23T09:39:09;25.90;99.90
10678;DHT22;5387;48.722;9.110;2022-07-23T09:41:39;25.60;99.90
10678;DHT22;5387;48.722;9.110;2022-07-23T09:44:07;25.30;99.90
10678;DHT22;5387;48.722;9.110;2022-07-23T09:46:35;25.30;99.90
10678;DHT22;5387;48.722;9.110;2022-07-23T09:49:14;25.50;99.90
10678;DHT22;5387;48.722;9.110;2022-07-23T09:51:51;25.90;99.90
10678;DHT22;5387;48.722;9.110;2022-07-23T09:54:33;25.90;99.90
10678;DHT22;5387;48.722;9.110;2022-07-23T09:57:04;26.00;99.90
10678;DHT22;5387;48.722;9.110;2022-07-23T09:59:34;26.30;99.90
10678;DHT22;5387;48.722;9.110;2022-07-23T10:02:01;26.50;99.90
10678;DHT22;5387;48.722;9.110;2022-07-23T10:04:30;26.40;99.90
10678;DHT22;5387;48.722;9.110;2022-07-23T10:06:59;26.40;99.90
10678;DHT22;5387;48.722;9.110;2022-07-23T10:09:28;26.60;99.90
10678;DHT22;5387;48.722;9.110;2022-07-23T10:11:58;26.30;99.90
10678;DHT22;5387;48.722;9.110;2022-07-23T10:14:31;26.30;99.90
10678;DHT22;5387;48.722;9.110;2022-07-23T10:17:00;26.60;98.90
10678;DHT22;5387;48.722;9.110;2022-07-23T10:19:28;26.70;98.40
10678;DHT22;5387;48.722;9.110;2022-07-23T10:21:58;26.70;97.60
10678;DHT22;5387;48.722;9.110;2022-07-23T10:24:36;26.20;97.10
10678;DHT22;5387;48.722;9.110;2022-07-23T10:27:33;26.50;97.10
10678;DHT22;5387;48.722;9.110;2022-07-23T10:30:05;26.70;97.20
10678;DHT22;5387;48.722;9.110;2022-07-23T10:32:40;26.70;96.80
10678;DHT22;5387;48.722;9.110;2022-07-23T10:35:25;27.00;96.90
10678;DHT22;5387;48.722;9.110;2022-07-23T10:37:59;27.10;96.90
10678;DHT22;5387;48.722;9.110;2022-07-23T10:40:31;27.20;97.10
10678;DHT22;5387;48.722;9.110;2022-07-23T10:43:00;27.30;96.60
10678;DHT22;5387;48.722;9.110;2022-07-23T10:45:31;27.10;96.40
10678;DHT22;5387;48.722;9.110;2022-07-23T10:48:14;27.10;96.70
10678;DHT22;5387;48.722;9.110;2022-07-23T10:50:41;27.10;97.20
10678;DHT22;5387;48.722;9.110;2022-07-23T10:53:14;26.90;96.50
10678;DHT22;5387;48.722;9.110;2022-07-23T10:55:52;27.00;96.60
10678;DHT22;5387;48.722;9.110;2022-07-23T10:58:47;27.20;96.00
10678;DHT22;5387;48.722;9.110;2022-07-23T11:01:34;27.30;95.00
10678;DHT22;5387;48.722;9.110;2022-07-23T11:04:02;27.50;95.20
10678;DHT22;5387;48.722;9.110;2022-07-23T11:07:07;27.90;95.00
10678;DHT22;5387;48.722;9.110;2022-07-23T11:09:39;28.20;94.60
10678;DHT22;5387;48.722;9.110;2022-07-23T11:12:32;27.90;94.60
10678;DHT22;5387;48.722;9.110;2022-07-23T11:15:01;27.70;94.70
10678;DHT22;5387;48.722;9.110;2022-07-23T11:17:28;27.50;94.60
10678;DHT22;5387;48.722;9.110;2022-07-23T11:20:19;27.90;95.20
10678;DHT22;5387;48.722;9.110;2022-07-23T11:22:50;27.70;94.00
10678;DHT22;5387;48.722;9.110;2022-07-23T11:25:33;27.70;94.50
10678;DHT22;5387;48.722;9.110;2022-07-23T11:28:13;27.70;94.20
10678;DHT22;5387;48.722;9.110;2022-07-23T11:30:43;27.70;94.10
10678;DHT22;5387;48.722;9.110;2022-07-23T11:33:20;27.80;94.30
10678;DHT22;5387;48.722;9.110;2022-07-23T11:36:00;27.70;94.10
10678;DHT22;5387;48.722;9.110;2022-07-23T11:38:30;27.50;96.40
10678;DHT22;5387;48.722;9.110;2022-07-23T11:40:58;27.70;94.90
10678;DHT22;5387;48.722;9.110;2022-07-23T11:43:25;27.90;94.40
10678;DHT22;5387;48.722;9.110;2022-07-23T11:45:54;27.80;93.30
10678;DHT22;5387;48.722;9.110;2022-07-23T11:48:25;27.60;95.60
10678;DHT22;5387;48.722;9.110;2022-07-23T11:50:53;28.10;93.20
10678;DHT22;5387;48.722;9.110;2022-07-23T11:53:23;28.10;93.40
10678;DHT22;5387;48.722;9.110;2022-07-23T11:55:51;27.60;93.50
10678;DHT22;5387;48.722;9.110;2022-07-23T11:58:18;27.30;94.10
10678;DHT22;5387;48.722;9.110;2022-07-23T12:00:45;27.00;95.60
10678;DHT22;5387;48.722;9.110;2022-07-23T12:03:13;27.20;94.50
10678;DHT22;5387;48.722;9.110;2022-07-23T12:05:40;27.20;94.70
10678;DHT22;5387;48.722;9.110;2022-07-23T12:08:08;27.40;93.70
10678;DHT22;5387;48.722;9.110;2022-07-23T12:10:37;28.10;92.50
10678;DHT22;5387;48.722;9.110;2022-07-23T12:13:06;29.90;91.80
10678;DHT22;5387;48.722;9.110;2022-07-23T12:15:38;29.70;90.00
10678;DHT22;5387;48.722;9.110;2022-07-23T12:18:08;30.70;90.90
10678;DHT22;5387;48.722;9.110;2022-07-23T12:20:38;31.30;85.90
10678;DHT22;5387;48.722;9.110;2022-07-23T12:23:06;29.80;87.00
10678;DHT22;5387;48.722;9.110;2022-07-23T12:25:34;30.00;87.80
10678;DHT22;5387;48.722;9.110;2022-07-23T12:28:04;29.00;88.00
10678;DHT22;5387;48.722;9.110;2022-07-23T12:30:38;27.90;89.90
10678;DHT22;5387;48.722;9.110;2022-07-23T12:33:06;27.90;90.70
10678;DHT22;5387;48.722;9.110;2022-07-23T12:35:37;27.90;90.90
10678;DHT22;5387;48.722;9.110;2022-07-23T12:38:10;28.40;90.80
10678;DHT22;5387;48.722;9.110;2022-07-23T12:40:42;28.40;90.30
10678;DHT22;5387;48.722;9.110;2022-07-23T12:43:10;28.50;90.50
10678;DHT22;5387;48.722;9.110;2022-07-23T12:45:49;28.60;90.40
10678;DHT22;5387;48.722;9.110;2022-07-23T12:48:19;28.30;89.90
10678;DHT22;5387;48.722;9.110;2022-07-23T12:50:56;28.10;90.80
10678;DHT22;5387;48.722;9.110;2022-07-23T12:53:26;27.80;90.90
10678;DHT22;5387;48.722;9.110;2022-07-23T12:56:03;27.90;90.70
10678;DHT22;5387;48.722;9.110;2022-07-23T12:58:41;28.60;90.50
10678;DHT22;5387;48.722;9.110;2022-07-23T13:01:08;29.40;91.00
10678;DHT22;5387;48.722;9.110;2022-07-23T13:03:37;29.60;88.50
10678;DHT22;5387;48.722;9.110;2022-07-23T13:06:08;29.20;88.70
10678;DHT22;5387;48.722;9.110;2022-07-23T13:08:36;29.50;88.90
10678;DHT22;5387;48.722;9.110;2022-07-23T13:11:04;30.10;87.90
10678;DHT22;5387;48.722;9.110;2022-07-23T13:13:34;30.20;86.30
10678;DHT22;5387;48.722;9.110;2022-07-23T13:16:02;30.40;84.10
10678;DHT22;5387;48.722;9.110;2022-07-23T13:18:29;31.10;83.40
10678;DHT22;5387;48.722;9.110;2022-07-23T13:20:56;31.00;83.00
10678;DHT22;5387;48.722;9.110;2022-07-23T13:23:25;30.70;81.50
10678;DHT22;5387;48.722;9.110;2022-07-23T13:25:52;30.20;80.80
10678;DHT22;5387;48.722;9.110;2022-07-23T13:28:20;30.60;81.80
10678;DHT22;5387;48.722;9.110;2022-07-23T13:30:48;31.20;80.10
10678;DHT22;5387;48.722;9.110;2022-07-23T13:33:17;31.00;81.00
10678;DHT22;5387;48.722;9.110;2022-07-23T13:35:44;31.20;80.80
10678;DHT22;5387;48.722;9.110;2022-07-23T13:38:12;31.00;80.00
10678;DHT22;5387;48.722;9.110;2022-07-23T13:40:42;30.50;79.80
10678;DHT22;5387;48.722;9.110;2022-07-23T13:43:10;30.40;80.70
10678;DHT22;5387;48.722;9.110;2022-07-23T13:45:38;30.10;82.10
10678;DHT22;5387;48.722;9.110;2022-07-23T13:48:06;29.80;81.40
10678;DHT22;5387;48.722;9.110;2022-07-23T13:50:33;29.50;81.20
10678;DHT22;5387;48.722;9.110;2022-07-23T13:53:01;28.80;83.30
10678;DHT22;5387;48.722;9.110;2022-07-23T13:55:29;29.00;84.00
10678;DHT22;5387;48.722;9.110;2022-07-23T13:57:57;28.40;83.20
10678;DHT22;5387;48.722;9.110;2022-07-23T14:00:25;27.60;84.60
10678;DHT22;5387;48.722;9.110;2022-07-23T14:02:52;27.30;85.50
10678;DHT22;5387;48.722;9.110;2022-07-23T14:05:19;27.40;86.70
10678;DHT22;5387;48.722;9.110;2022-07-23T14:07:46;27.50;85.40
10678;DHT22;5387;48.722;9.110;2022-07-23T14:10:16;27.70;84.90
10678;DHT22;5387;48.722;9.110;2022-07-23T14:12:44;27.80;84.70
10678;DHT22;5387;48.722;9.110;2022-07-23T14:15:12;27.50;85.00
10678;DHT22;5387;48.722;9.110;2022-07-23T14:17:42;27.60;86.70
10678;DHT22;5387;48.722;9.110;2022-07-23T14:20:11;27.60;85.90
10678;DHT22;5387;48.722;9.110;2022-07-23T14:22:39;27.90;85.00
10678;DHT22;5387;48.722;9.110;2022-07-23T14:25:07;28.30;86.00
10678;DHT22;5387;48.722;9.110;2022-07-23T14:27:34;28.50;83.10
10678;DHT22;5387;48.722;9.110;2022-07-23T14:30:04;28.60;85.10
10678;DHT22;5387;48.722;9.110;2022-07-23T14:32:33;28.60;82.00
10678;DHT22;5387;48.722;9.110;2022-07-23T14:35:00;28.40;81.30
10678;DHT22;5387;48.722;9.110;2022-07-23T14:37:27;28.00;81.80
10678;DHT22;5387;48.722;9.110;2022-07-23T14:39:53;27.90;80.30
10678;DHT22;5387;48.722;9.110;2022-07-23T14:42:20;28.00;81.60
10678;DHT22;5387;48.722;9.110;2022-07-23T14:44:47;28.10;82.60
10678;DHT22;5387;48.722;9.110;2022-07-23T14:47:14;28.00;81.00
10678;DHT22;5387;48.722;9.110;2022-07-23T14:49:43;27.80;80.70
10678;DHT22;5387;48.722;9.110;2022-07-23T14:52:10;28.00;80.30
10678;DHT22;5387;48.722;9.110;2022-07-23T14:54:37;28.00;80.70
10678;DHT22;5387;48.722;9.110;2022-07-23T14:57:04;28.10;82.30
10678;DHT22;5387;48.722;9.110;2022-07-23T14:59:32;28.00;80.70
10678;DHT22;5387;48.722;9.110;2022-07-23T15:01:59;28.10;78.60
10678;DHT22;5387;48.722;9.110;2022-07-23T15:04:26;28.30;79.10
10678;DHT22;5387;48.722;9.110;2022-07-23T15:06:54;28.20;78.40
10678;DHT22;5387;48.722;9.110;2022-07-23T15:09:21;28.30;78.70
10678;DHT22;5387;48.722;9.110;2022-07-23T15:11:48;28.10;78.90
10678;DHT22;5387;48.722;9.110;2022-07-23T15:14:15;28.10;79.20
10678;DHT22;5387;48.722;9.110;2022-07-23T15:16:42;28.10;79.40
10678;DHT22;5387;48.722;9.110;2022-07-23T15:19:08;28.20;80.10
10678;DHT22;5387;48.722;9.110;2022-07-23T15:21:35;28.50;78.80
10678;DHT22;5387;48.722;9.110;2022-07-23T15:24:04;28.50;77.50
10678;DHT22;5387;48.722;9.110;2022-07-23T15:26:31;28.40;78.70
10678;DHT22;5387;48.722;9.110;2022-07-23T15:28:58;28.20;78.80
10678;DHT22;5387;48.722;9.110;2022-07-23T15:31:26;28.10;77.80
10678;DHT22;5387;48.722;9.110;2022-07-23T15:33:53;28.10;77.50
10678;DHT22;5387;48.722;9.110;2022-07-23T15:36:20;28.10;77.70
10678;DHT22;5387;48.722;9.110;2022-07-23T15:38:48;28.30;79.40
10678;DHT22;5387;48.722;9.110;2022-07-23T15:41:16;28.50;78.40
10678;DHT22;5387;48.722;9.110;2022-07-23T15:43:43;28.40;78.60
10678;DHT22;5387;48.722;9.110;2022-07-23T15:46:10;28.20;80.00
10678;DHT22;5387;48.722;9.110;2022-07-23T15:48:37;28.50;80.00
10678;DHT22;5387;48.722;9.110;2022-07-23T15:51:05;28.20;79.80
10678;DHT22;5387;48.722;9.110;2022-07-23T15:53:32;28.30;80.30
10678;DHT22;5387;48.722;9.110;2022-07-23T15:56:00;28.20;78.80